Time;durP1;ratioP1;P1;durP2;ratioP2;P2;SDS_P1;SDS_P2;PMS_P1;PMS_P2;Temp;Humidity;BMP_temperature;BMP_pressure;BME280_temperature;BME280_humidity;BME280_pressure;Samples;Min_cycle;Max_cycle;Signal;HPM_P1;HPM_P2
2022/05/28 00:01:34;;;;;;;16.80;2.03;;;11.60;99.90;;;;;;6243012;23;20016;-81
2022/05/28 00:04:04;;;;;;;8.57;1.40;;;11.60;99.90;;;;;;6190324;23;20013;-82
2022/05/28 00:06:31;;;;;;;7.10;1.23;;;11.50;99.90;;;;;;6166214;23;20349;-81
2022/05/28 00:08:58;;;;;;;5.35;1.25;;;11.60;99.90;;;;;;6191870;23;20013;-82
2022/05/28 00:11:27;;;;;;;7.45;1.50;;;11.60;99.90;;;;;;6218219;23;20017;-81
2022/05/28 00:13:53;;;;;;;10.63;1.20;;;11.60;99.90;;;;;;6217999;23;20016;-81
2022/05/28 00:16:20;;;;;;;5.43;0.98;;;11.70;99.90;;;;;;6219690;23;20019;-81
2022/05/28 00:18:46;;;;;;;6.07;1.00;;;11.70;99.90;;;;;;6191672;23;20094;-81
2022/05/28 00:21:13;;;;;;;6.05;0.85;;;11.70;99.90;;;;;;6217603;23;20016;-81
2022/05/28 00:23:40;;;;;;;9.20;1.42;;;11.80;99.90;;;;;;6218095;23;20016;-81
2022/05/28 00:26:06;;;;;;;10.80;0.90;;;11.80;99.90;;;;;;6191055;23;20061;-82
2022/05/28 00:28:33;;;;;;;8.20;1.05;;;11.90;99.90;;;;;;6191788;23;20047;-82
2022/05/28 00:31:00;;;;;;;4.60;1.00;;;11.90;99.90;;;;;;6166751;23;20016;-80
2022/05/28 00:33:26;;;;;;;5.22;0.90;;;11.90;99.90;;;;;;6216216;23;20427;-81
2022/05/28 00:35:52;;;;;;;6.35;1.27;;;11.90;99.90;;;;;;6216913;23;20088;-83
2022/05/28 00:38:18;;;;;;;6.55;1.15;;;11.90;99.90;;;;;;6214958;23;20012;-82
2022/05/28 00:40:50;;;;;;;6.78;1.02;;;11.90;99.90;;;;;;6162599;23;20012;-82
2022/05/28 00:43:16;;;;;;;3.15;0.65;;;11.90;99.90;;;;;;6188300;23;20028;-84
2022/05/28 00:45:44;;;;;;;5.47;1.38;;;11.80;99.90;;;;;;6214724;23;20008;-83
2022/05/28 00:48:11;;;;;;;5.93;0.90;;;11.70;99.90;;;;;;6162688;23;20025;-83
2022/05/28 00:50:38;;;;;;;4.65;1.00;;;11.60;99.90;;;;;;6187877;23;20056;-83
2022/05/28 00:53:05;;;;;;;3.78;0.90;;;11.50;99.90;;;;;;6214478;23;20090;-82
2022/05/28 00:55:33;;;;;;;4.38;1.17;;;11.40;99.90;;;;;;6215082;23;20009;-81
2022/05/28 00:58:05;;;;;;;4.35;0.90;;;11.30;99.90;;;;;;6214721;23;20013;-81
2022/05/28 01:00:32;;;;;;;3.30;0.68;;;11.10;99.90;;;;;;6188355;23;20025;-81
2022/05/28 01:03:35;;;;;;;2.97;0.55;;;11.10;99.90;;;;;;6224536;22;20012;-81
2022/05/28 01:06:08;;;;;;;3.92;0.73;;;10.90;99.90;;;;;;6243219;23;20047;-80
2022/05/28 01:08:47;;;;;;;7.65;0.80;;;10.80;99.90;;;;;;6245197;22;20016;-81
2022/05/28 01:11:21;;;;;;;2.40;0.63;;;10.70;99.90;;;;;;6245828;22;20016;-80
2022/05/28 01:13:55;;;;;;;3.30;0.47;;;10.60;99.90;;;;;;6218961;23;20024;-80
2022/05/28 01:16:42;;;;;;;5.25;1.25;;;10.50;99.90;;;;;;6244647;23;20019;-81
2022/05/28 01:19:34;;;;;;;6.72;1.30;;;10.40;99.90;;;;;;6245440;23;20066;-80
2022/05/28 01:22:15;;;;;;;3.15;0.93;;;10.40;99.90;;;;;;6236473;22;20012;-81
2022/05/28 01:25:00;;;;;;;4.50;0.85;;;10.40;99.90;;;;;;6245507;23;20138;-81
2022/05/28 01:27:34;;;;;;;3.10;0.77;;;10.30;99.90;;;;;;6244992;22;20004;-81
2022/05/28 01:30:04;;;;;;;7.28;0.93;;;10.20;99.90;;;;;;6243564;23;20019;-81
2022/05/28 01:32:31;;;;;;;5.50;1.17;;;10.20;99.90;;;;;;6221014;23;20074;-80
2022/05/28 01:35:00;;;;;;;8.25;1.42;;;10.10;99.90;;;;;;6246733;23;20087;-81
2022/05/28 01:37:26;;;;;;;4.65;1.17;;;10.10;99.90;;;;;;6248196;23;20016;-81
2022/05/28 01:39:55;;;;;;;4.85;0.75;;;10.10;99.90;;;;;;6247900;23;20013;-82
2022/05/28 01:42:22;;;;;;;3.53;0.85;;;10.10;99.90;;;;;;6251126;22;20043;-82
2022/05/28 01:44:49;;;;;;;4.25;1.35;;;10.10;99.90;;;;;;6250287;23;20012;-82
2022/05/28 01:47:16;;;;;;;7.80;0.98;;;10.00;99.90;;;;;;6247915;22;20011;-81
2022/05/28 01:49:43;;;;;;;3.53;1.10;;;10.00;99.90;;;;;;6246691;23;20046;-81
2022/05/28 01:52:11;;;;;;;5.18;0.85;;;9.90;99.90;;;;;;6249162;22;20019;-81
2022/05/28 01:54:43;;;;;;;5.57;0.85;;;9.90;99.90;;;;;;6247445;23;20023;-81
2022/05/28 01:57:09;;;;;;;8.40;1.45;;;9.90;99.90;;;;;;6249214;22;20047;-81
2022/05/28 01:59:36;;;;;;;4.22;0.93;;;9.90;99.90;;;;;;6220408;23;20405;-83
2022/05/28 02:02:06;;;;;;;10.13;1.92;;;9.90;99.90;;;;;;6248380;22;20524;-82
2022/05/28 02:04:34;;;;;;;6.63;1.05;;;9.90;99.90;;;;;;6249214;22;20016;-80
2022/05/28 02:07:02;;;;;;;7.00;0.98;;;9.90;99.90;;;;;;6248553;22;20061;-81
2022/05/28 02:09:33;;;;;;;6.45;1.17;;;9.80;99.90;;;;;;6263379;23;20019;-78
2022/05/28 02:12:26;;;;;;;8.73;1.30;;;9.80;99.90;;;;;;6270756;22;20034;-78
2022/05/28 02:14:58;;;;;;;9.43;1.35;;;9.80;99.90;;;;;;6249657;23;20018;-80
2022/05/28 02:17:49;;;;;;;5.25;1.20;;;9.80;99.90;;;;;;6246427;22;20052;-81
2022/05/28 02:20:44;;;;;;;2.72;1.60;;;9.80;99.90;;;;;;6217273;23;20019;-80
2022/05/28 02:23:27;;;;;;;1.27;0.63;;;9.70;99.90;;;;;;6237483;22;20016;-81
2022/05/28 02:26:06;;;;;;;5.18;1.13;;;9.70;99.90;;;;;;6246138;22;20008;-80
2022/05/28 02:28:33;;;;;;;7.50;1.10;;;9.70;99.90;;;;;;6244927;23;20043;-80
2022/05/28 02:31:08;;;;;;;12.95;1.00;;;9.60;99.90;;;;;;6245013;22;20028;-81
2022/05/28 02:33:34;;;;;;;5.45;1.27;;;9.60;99.90;;;;;;6244895;22;20346;-81
2022/05/28 02:36:00;;;;;;;5.35;1.15;;;9.60;99.90;;;;;;6220045;23;20098;-81
2022/05/28 02:38:25;;;;;;;14.30;3.63;;;9.60;99.90;;;;;;6244856;23;20012;-80
2022/05/28 02:40:54;;;;;;;9.60;1.63;;;9.60;99.90;;;;;;6244807;23;20019;-80
2022/05/28 02:43:21;;;;;;;4.75;1.08;;;9.60;99.90;;;;;;6244982;22;20012;-81
2022/05/28 02:45:47;;;;;;;7.60;1.27;;;9.50;99.90;;;;;;6244580;23;20020;-80
2022/05/28 02:48:12;;;;;;;7.32;1.10;;;9.50;99.90;;;;;;6244734;23;20016;-80
2022/05/28 02:50:38;;;;;;;8.85;1.88;;;9.50;99.90;;;;;;6245440;22;20357;-81
2022/05/28 02:53:03;;;;;;;7.53;1.27;;;9.50;99.90;;;;;;6246555;22;20023;-80
2022/05/28 02:55:29;;;;;;;7.00;1.88;;;9.50;99.90;;;;;;6244539;23;20091;-80
2022/05/28 02:57:54;;;;;;;4.88;1.17;;;9.40;99.90;;;;;;6246120;23;20046;-81
2022/05/28 03:00:20;;;;;;;11.77;1.33;;;9.40;99.90;;;;;;6247696;23;20015;-80
2022/05/28 03:02:46;;;;;;;5.78;1.05;;;9.40;99.90;;;;;;6231521;22;20075;-80
2022/05/28 03:05:14;;;;;;;6.18;1.67;;;9.40;99.90;;;;;;6168869;23;20437;-81
2022/05/28 03:07:40;;;;;;;10.13;1.10;;;9.40;99.90;;;;;;6220741;23;20009;-81
2022/05/28 03:10:06;;;;;;;9.35;1.50;;;9.30;99.90;;;;;;6219892;23;20058;-80
2022/05/28 03:12:32;;;;;;;11.82;2.08;;;9.20;99.90;;;;;;6193204;23;20062;-80
2022/05/28 03:14:57;;;;;;;10.27;1.65;;;9.30;99.90;;;;;;6218612;23;20040;-81
2022/05/28 03:17:23;;;;;;;7.13;1.02;;;9.30;99.90;;;;;;6193485;23;20012;-81
2022/05/28 03:19:48;;;;;;;4.47;0.90;;;9.20;99.90;;;;;;6217564;23;20027;-80
2022/05/28 03:22:14;;;;;;;5.53;1.40;;;9.20;99.90;;;;;;6218931;23;20453;-81
2022/05/28 03:24:39;;;;;;;6.70;1.08;;;9.20;99.90;;;;;;6218569;23;20077;-81
2022/05/28 03:27:05;;;;;;;5.55;1.48;;;9.20;99.90;;;;;;6218835;23;20020;-80
2022/05/28 03:29:31;;;;;;;9.93;1.60;;;9.20;99.90;;;;;;6193527;23;20068;-78
2022/05/28 03:31:56;;;;;;;5.55;1.50;;;9.20;99.90;;;;;;6193308;23;20076;-79
2022/05/28 03:34:22;;;;;;;11.10;1.27;;;9.30;99.90;;;;;;6219854;23;20019;-80
2022/05/28 03:36:47;;;;;;;5.53;1.13;;;9.20;99.90;;;;;;6218864;23;20063;-80
2022/05/28 03:39:13;;;;;;;5.75;1.83;;;9.20;99.90;;;;;;6219182;23;20009;-80
2022/05/28 03:41:40;;;;;;;4.95;1.20;;;9.20;99.90;;;;;;6217723;23;20047;-81
2022/05/28 03:44:06;;;;;;;8.85;1.42;;;9.10;99.90;;;;;;6218169;23;20040;-81
2022/05/28 03:46:34;;;;;;;5.10;1.10;;;9.20;99.90;;;;;;6191284;23;20346;-80
2022/05/28 03:49:04;;;;;;;6.95;1.10;;;9.10;99.90;;;;;;6217500;23;20013;-80
2022/05/28 03:51:30;;;;;;;10.35;1.83;;;9.20;99.90;;;;;;6218950;23;20016;-80
2022/05/28 03:53:56;;;;;;;6.43;1.55;;;9.20;99.90;;;;;;6197353;23;20009;-79
2022/05/28 03:56:25;;;;;;;6.97;1.02;;;9.20;99.90;;;;;;6208055;23;20002;-80
2022/05/28 03:58:51;;;;;;;7.47;1.40;;;9.20;99.90;;;;;;6224476;23;20017;-81
2022/05/28 04:01:17;;;;;;;5.55;1.10;;;9.20;99.90;;;;;;6215269;23;20005;-81
2022/05/28 04:03:43;;;;;;;8.13;1.00;;;9.20;99.90;;;;;;6215587;23;20020;-81
2022/05/28 04:06:09;;;;;;;6.07;1.05;;;9.30;99.90;;;;;;6188716;23;20032;-81
2022/05/28 04:08:35;;;;;;;9.88;1.10;;;9.20;99.90;;;;;;6213365;23;20027;-81
2022/05/28 04:11:01;;;;;;;7.03;1.20;;;9.30;99.90;;;;;;6216101;23;20037;-80
2022/05/28 04:13:26;;;;;;;8.52;1.92;;;9.30;99.90;;;;;;6240360;22;20012;-80
2022/05/28 04:15:52;;;;;;;9.70;1.33;;;9.30;99.90;;;;;;6190598;23;20106;-80
2022/05/28 04:18:18;;;;;;;7.82;1.27;;;9.40;99.90;;;;;;6216153;23;20351;-80
2022/05/28 04:20:44;;;;;;;4.53;1.33;;;9.40;99.90;;;;;;6189389;23;20016;-79
2022/05/28 04:23:09;;;;;;;4.28;0.73;;;9.40;99.90;;;;;;6214700;23;20028;-80
2022/05/28 04:25:35;;;;;;;5.18;1.10;;;9.40;99.90;;;;;;6218643;23;20378;-81
2022/05/28 04:28:00;;;;;;;7.00;1.00;;;9.40;99.90;;;;;;6217707;23;20020;-81
2022/05/28 04:30:26;;;;;;;14.15;2.42;;;9.40;99.90;;;;;;6216912;23;20354;-81
2022/05/28 04:32:51;;;;;;;7.63;1.13;;;9.50;99.90;;;;;;6217420;23;20320;-81
2022/05/28 04:35:17;;;;;;;6.35;1.15;;;9.50;99.90;;;;;;6240558;23;20420;-80
2022/05/28 04:37:42;;;;;;;7.30;1.45;;;9.50;99.90;;;;;;6216296;23;20385;-80
2022/05/28 04:40:09;;;;;;;5.53;1.27;;;9.60;99.90;;;;;;6215673;23;20087;-81
2022/05/28 04:42:35;;;;;;;7.38;1.00;;;9.60;99.90;;;;;;6216592;23;20005;-81
2022/05/28 04:45:00;;;;;;;8.68;1.10;;;9.70;99.90;;;;;;6215948;23;20422;-81
2022/05/28 04:47:26;;;;;;;9.05;1.40;;;9.80;99.90;;;;;;6215379;23;20422;-81
2022/05/28 04:49:51;;;;;;;14.43;1.63;;;9.90;99.90;;;;;;6216859;23;20024;-80
2022/05/28 04:52:17;;;;;;;6.68;1.25;;;10.10;99.90;;;;;;6217764;23;20020;-80
2022/05/28 04:54:43;;;;;;;5.82;1.20;;;10.40;99.90;;;;;;6219150;23;20035;-80
2022/05/28 04:57:08;;;;;;;16.73;1.88;;;10.70;99.90;;;;;;6217496;23;20040;-81
2022/05/28 04:59:34;;;;;;;6.13;1.30;;;10.90;99.90;;;;;;6217780;23;20369;-81
2022/05/28 05:01:59;;;;;;;14.52;1.52;;;11.00;99.90;;;;;;6224232;22;20016;-81
2022/05/28 05:04:25;;;;;;;4.05;1.23;;;11.10;99.90;;;;;;6245552;23;20060;-81
2022/05/28 05:06:50;;;;;;;6.45;1.48;;;11.40;99.90;;;;;;6247639;22;20016;-81
2022/05/28 05:09:16;;;;;;;12.20;2.28;;;12.00;99.90;;;;;;6245952;23;20019;-81
2022/05/28 05:11:41;;;;;;;11.88;1.23;;;12.50;99.90;;;;;;6247034;22;20094;-80
2022/05/28 05:14:07;;;;;;;12.05;1.98;;;12.90;99.90;;;;;;6248350;22;20468;-81
2022/05/28 05:16:33;;;;;;;7.82;1.25;;;13.40;99.90;;;;;;6247242;22;20016;-81
2022/05/28 05:18:58;;;;;;;7.00;1.15;;;13.80;99.90;;;;;;6245517;23;20048;-81
2022/05/28 05:21:24;;;;;;;7.28;1.20;;;14.30;99.90;;;;;;6243900;22;20083;-80
2022/05/28 05:23:49;;;;;;;8.25;1.52;;;14.60;99.90;;;;;;6244086;23;20023;-81
2022/05/28 05:26:18;;;;;;;10.70;1.73;;;14.80;99.90;;;;;;6220552;23;20020;-81
2022/05/28 05:28:44;;;;;;;8.30;2.10;;;15.00;99.90;;;;;;6247943;23;20023;-81
2022/05/28 05:31:10;;;;;;;6.47;1.40;;;15.20;99.90;;;;;;6247086;23;20016;-80
2022/05/28 05:33:35;;;;;;;8.25;1.58;;;15.20;99.90;;;;;;6249061;22;20019;-81
2022/05/28 05:36:01;;;;;;;10.95;1.30;;;15.40;99.90;;;;;;6249396;22;20074;-81
2022/05/28 05:38:27;;;;;;;11.55;1.60;;;15.50;99.90;;;;;;6248432;22;20050;-81
2022/05/28 05:40:53;;;;;;;5.55;1.33;;;15.80;99.90;;;;;;6249871;22;20012;-80
2022/05/28 05:43:19;;;;;;;4.82;1.40;;;16.00;99.90;;;;;;6246886;22;20150;-80
2022/05/28 05:45:56;;;;;;;9.82;1.77;;;16.30;99.90;;;;;;6249479;22;20070;-81
2022/05/28 05:48:22;;;;;;;13.30;2.35;;;16.50;99.90;;;;;;6249179;22;20403;-81
2022/05/28 05:50:47;;;;;;;9.30;1.65;;;16.50;99.90;;;;;;6247600;22;20019;-81
2022/05/28 05:53:13;;;;;;;10.27;1.73;;;16.70;99.90;;;;;;6245252;22;20016;-81
2022/05/28 05:55:39;;;;;;;16.02;1.90;;;16.80;99.90;;;;;;6245544;23;20358;-80
2022/05/28 05:58:05;;;;;;;9.13;1.50;;;16.50;99.90;;;;;;6246831;22;20042;-80
2022/05/28 06:00:31;;;;;;;9.70;1.73;;;16.00;99.90;;;;;;6245827;22;20016;-80
2022/05/28 06:02:56;;;;;;;12.43;2.35;;;15.30;99.90;;;;;;6225666;22;20023;-79
2022/05/28 06:05:22;;;;;;;10.00;1.92;;;14.80;99.90;;;;;;6190507;23;20044;-81
2022/05/28 06:07:48;;;;;;;12.90;1.88;;;14.20;99.90;;;;;;6189507;23;20387;-81
2022/05/28 06:10:14;;;;;;;12.65;1.77;;;13.90;99.90;;;;;;6190225;23;20008;-80
2022/05/28 06:12:40;;;;;;;9.40;1.65;;;13.50;99.90;;;;;;6216901;23;20413;-81
2022/05/28 06:15:06;;;;;;;9.57;1.83;;;13.30;99.90;;;;;;6165701;23;20104;-81
2022/05/28 06:17:34;;;;;;;10.90;1.58;;;13.10;99.90;;;;;;6163622;23;20701;-80
2022/05/28 06:20:04;;;;;;;12.02;1.55;;;12.80;99.90;;;;;;6215664;23;20505;-79
2022/05/28 06:22:29;;;;;;;12.45;2.88;;;12.60;99.90;;;;;;6217964;23;20012;-79
2022/05/28 06:24:55;;;;;;;11.57;1.92;;;12.50;99.90;;;;;;6218191;23;20063;-82
2022/05/28 06:27:22;;;;;;;8.55;2.13;;;12.20;99.90;;;;;;6190516;23;20021;-80
2022/05/28 06:29:47;;;;;;;10.40;1.75;;;12.10;99.90;;;;;;6216301;23;20009;-81
2022/05/28 06:32:13;;;;;;;8.43;2.08;;;11.90;99.90;;;;;;6189083;23;20020;-81
2022/05/28 06:34:38;;;;;;;12.27;1.70;;;11.70;99.90;;;;;;6215070;23;20044;-81
2022/05/28 06:37:07;;;;;;;6.32;1.27;;;11.70;99.90;;;;;;6190605;23;20327;-80
2022/05/28 06:39:34;;;;;;;8.95;1.05;;;11.50;99.90;;;;;;6189853;23;20023;-80
2022/05/28 06:42:00;;;;;;;9.90;1.27;;;11.50;99.90;;;;;;6190228;23;20480;-80
2022/05/28 06:44:26;;;;;;;8.68;1.50;;;11.40;99.90;;;;;;6220583;23;20016;-81
2022/05/28 06:46:52;;;;;;;8.32;1.42;;;11.30;99.90;;;;;;6191642;23;20021;-81
2022/05/28 06:49:18;;;;;;;9.77;1.88;;;11.30;99.90;;;;;;6216410;23;20080;-82
2022/05/28 06:51:44;;;;;;;13.80;2.47;;;11.30;99.90;;;;;;6166332;23;20008;-81
2022/05/28 06:54:09;;;;;;;6.38;1.35;;;11.30;99.90;;;;;;6168287;23;20031;-82
2022/05/28 06:56:35;;;;;;;9.50;1.50;;;11.60;99.90;;;;;;6191155;23;20013;-80
2022/05/28 06:59:00;;;;;;;10.15;2.67;;;12.50;99.90;;;;;;6217920;23;20123;-84
2022/05/28 07:01:26;;;;;;;6.70;1.40;;;13.60;99.90;;;;;;6190476;23;20004;-83
2022/05/28 07:03:51;;;;;;;15.25;2.13;;;14.40;99.90;;;;;;6199165;23;20013;-83
2022/05/28 07:06:17;;;;;;;6.32;1.52;;;15.10;99.90;;;;;;6205144;23;20064;-83
2022/05/28 07:08:42;;;;;;;11.13;1.50;;;15.70;99.90;;;;;;6197689;23;20036;-83
2022/05/28 07:11:09;;;;;;;9.20;1.60;;;16.10;99.90;;;;;;6189864;23;20016;-83
2022/05/28 07:13:36;;;;;;;11.75;1.85;;;16.50;99.90;;;;;;6191035;23;20005;-82
2022/05/28 07:16:05;;;;;;;11.40;1.77;;;17.00;99.90;;;;;;6164147;23;20017;-82
2022/05/28 07:18:31;;;;;;;9.10;2.10;;;17.50;99.90;;;;;;6215792;23;20024;-80
2022/05/28 07:20:57;;;;;;;10.63;1.38;;;17.80;99.90;;;;;;6165153;23;20538;-81
2022/05/28 07:23:25;;;;;;;15.75;2.28;;;17.00;99.90;;;;;;6189196;23;20092;-81
2022/05/28 07:26:02;;;;;;;13.48;2.05;;;16.20;99.90;;;;;;6216923;23;20016;-81
2022/05/28 07:28:31;;;;;;;9.38;1.70;;;15.50;99.90;;;;;;6165030;23;20020;-81
2022/05/28 07:31:20;;;;;;;11.50;1.60;;;14.90;99.90;;;;;;6189171;23;20020;-81
2022/05/28 07:33:50;;;;;;;10.68;2.28;;;14.40;99.90;;;;;;6190596;23;20020;-80
2022/05/28 07:36:20;;;;;;;10.70;2.10;;;13.90;99.90;;;;;;6164562;23;20066;-82
2022/05/28 07:38:47;;;;;;;9.68;1.77;;;13.80;99.90;;;;;;6217261;23;20018;-81
2022/05/28 07:41:15;;;;;;;11.45;1.88;;;13.70;99.90;;;;;;6189479;23;20008;-81
2022/05/28 07:43:42;;;;;;;7.85;1.90;;;13.80;99.90;;;;;;6189152;23;20017;-81
2022/05/28 07:46:16;;;;;;;8.60;1.17;;;13.90;99.90;;;;;;6216385;23;20047;-82
2022/05/28 07:48:42;;;;;;;10.35;1.70;;;14.10;99.90;;;;;;6188725;23;20261;-77
2022/05/28 07:51:08;;;;;;;7.40;1.42;;;14.10;99.90;;;;;;6186458;23;20017;-77
2022/05/28 07:53:34;;;;;;;6.93;1.92;;;13.90;99.90;;;;;;6161981;23;20095;-77
2022/05/28 07:56:01;;;;;;;14.27;2.42;;;13.60;99.90;;;;;;6213412;23;20454;-77
2022/05/28 07:58:27;;;;;;;10.23;1.67;;;13.50;99.90;;;;;;6213749;23;20051;-78
2022/05/28 08:00:53;;;;;;;12.95;1.95;;;13.40;99.90;;;;;;6213695;23;20008;-78
2022/05/28 08:03:19;;;;;;;11.88;1.92;;;13.40;99.90;;;;;;6232589;22;20055;-77
2022/05/28 08:05:47;;;;;;;9.85;2.53;;;13.40;99.90;;;;;;6242428;23;20019;-77
2022/05/28 08:08:13;;;;;;;12.88;1.88;;;13.50;99.90;;;;;;6217241;23;20023;-76
2022/05/28 08:10:39;;;;;;;10.20;1.90;;;13.40;99.90;;;;;;6241063;23;20421;-77
2022/05/28 08:13:08;;;;;;;9.93;2.13;;;13.50;99.90;;;;;;6215702;23;20014;-77
2022/05/28 08:15:39;;;;;;;9.80;1.95;;;13.70;99.90;;;;;;6242300;23;20012;-77
2022/05/28 08:18:05;;;;;;;12.57;1.85;;;14.00;99.90;;;;;;6241653;23;20012;-78
2022/05/28 08:23:18;;;;;;;7.50;1.63;;;14.30;99.90;;;;;;6242123;22;20091;-78
2022/05/28 08:25:45;;;;;;;11.10;1.80;;;14.70;99.90;;;;;;6241832;23;20013;-77
2022/05/28 08:28:13;;;;;;;12.65;2.17;;;15.20;99.90;;;;;;6242253;23;20159;-77
2022/05/28 08:30:39;;;;;;;9.35;2.10;;;15.80;99.90;;;;;;6216408;23;20134;-76
2022/05/28 08:33:06;;;;;;;7.32;1.77;;;16.60;99.90;;;;;;6242122;22;20011;-76
2022/05/28 08:35:32;;;;;;;9.73;1.67;;;17.20;99.90;;;;;;6216459;23;20357;-76
2022/05/28 08:38:06;;;;;;;8.30;1.70;;;17.30;99.90;;;;;;6216360;23;20012;-77
2022/05/28 08:40:41;;;;;;;10.57;2.10;;;17.00;99.90;;;;;;6241401;23;20062;-78
2022/05/28 08:43:08;;;;;;;8.25;1.77;;;16.50;99.90;;;;;;6241948;22;20346;-76
2022/05/28 08:45:34;;;;;;;10.02;1.92;;;16.00;99.90;;;;;;6241972;23;20016;-78
2022/05/28 08:48:01;;;;;;;6.75;1.60;;;15.60;99.90;;;;;;6216263;23;20077;-78
2022/05/28 08:50:29;;;;;;;8.75;1.77;;;15.10;99.90;;;;;;6243225;22;20027;-77
2022/05/28 08:53:11;;;;;;;14.35;2.00;;;14.90;99.90;;;;;;6241646;22;20030;-77
2022/05/28 08:55:45;;;;;;;9.32;1.67;;;14.70;99.90;;;;;;6241879;23;20020;-78
2022/05/28 08:58:18;;;;;;;7.78;1.77;;;14.90;99.90;;;;;;6241885;22;20012;-77
2022/05/28 09:01:03;;;;;;;8.13;1.70;;;15.20;99.90;;;;;;6243164;22;20027;-78
2022/05/28 09:03:33;;;;;;;9.20;1.73;;;15.40;99.90;;;;;;6215528;22;20017;-77
2022/05/28 09:06:18;;;;;;;6.93;2.03;;;15.40;99.90;;;;;;6213039;23;20047;-79
2022/05/28 09:08:48;;;;;;;6.30;1.75;;;15.30;99.90;;;;;;6213878;23;20023;-76
2022/05/28 09:11:37;;;;;;;9.63;1.77;;;15.20;99.90;;;;;;6161011;23;20088;-76
2022/05/28 09:14:29;;;;;;;11.85;2.33;;;15.10;99.90;;;;;;6161185;23;20012;-76
2022/05/28 09:16:59;;;;;;;7.22;1.67;;;15.20;99.90;;;;;;6161472;23;20008;-77
2022/05/28 09:19:29;;;;;;;12.23;1.88;;;15.30;99.90;;;;;;6161144;23;20021;-77
2022/05/28 09:21:55;;;;;;;7.95;1.98;;;15.50;99.90;;;;;;6212912;23;20054;-77
2022/05/28 09:24:26;;;;;;;8.35;2.30;;;15.70;99.90;;;;;;6213222;23;20020;-78
2022/05/28 09:27:06;;;;;;;12.50;1.70;;;15.70;99.90;;;;;;6212948;23;20088;-76
2022/05/28 09:30:02;;;;;;;11.90;1.80;;;15.60;99.90;;;;;;6212351;23;20020;-78
2022/05/28 09:32:48;;;;;;;7.68;1.98;;;15.90;99.90;;;;;;6186311;23;20016;-77
2022/05/28 09:35:44;;;;;;;10.02;1.65;;;16.10;99.90;;;;;;6186471;23;20449;-78
2022/05/28 09:38:19;;;;;;;7.88;1.50;;;16.10;99.90;;;;;;6212824;23;20024;-78
2022/05/28 09:40:51;;;;;;;6.95;1.23;;;15.80;99.90;;;;;;6185928;23;20013;-76
2022/05/28 09:43:33;;;;;;;14.93;2.20;;;15.50;99.90;;;;;;6212799;23;20059;-78
2022/05/28 09:46:19;;;;;;;6.40;1.58;;;15.30;99.90;;;;;;6212935;23;20012;-77
2022/05/28 09:48:47;;;;;;;7.75;1.52;;;15.10;99.90;;;;;;6213011;23;20044;-77
2022/05/28 09:51:24;;;;;;;12.07;2.03;;;15.20;99.90;;;;;;6185595;23;20020;-78
2022/05/28 09:56:50;;;;;;;7.43;1.25;;;16.40;99.90;;;;;;6185799;23;20019;-79
2022/05/28 09:59:35;;;;;;;6.75;1.83;;;16.60;99.90;;;;;;6186180;23;20084;-78
2022/05/28 10:02:17;;;;;;;7.25;1.40;;;16.60;99.90;;;;;;6212585;23;20434;-77
2022/05/28 10:04:56;;;;;;;9.10;1.85;;;16.40;99.90;;;;;;6185909;23;20027;-77
2022/05/28 10:07:35;;;;;;;3.38;0.82;;;16.30;99.90;;;;;;6212444;23;20016;-78
2022/05/28 10:10:16;;;;;;;5.85;1.33;;;16.70;99.90;;;;;;6185338;23;20083;-78
2022/05/28 10:12:41;;;;;;;12.48;1.60;;;17.10;99.90;;;;;;6162594;23;20008;-77
2022/05/28 10:15:16;;;;;;;8.43;1.38;;;17.20;99.90;;;;;;6187928;23;20067;-78
2022/05/28 10:17:55;;;;;;;8.98;1.77;;;17.50;99.90;;;;;;6162781;23;20020;-78
2022/05/28 10:20:21;;;;;;;8.65;1.63;;;17.70;99.90;;;;;;6162802;23;20322;-78
2022/05/28 10:22:50;;;;;;;8.27;1.42;;;18.00;99.90;;;;;;6187582;23;20055;-77
2022/05/28 10:25:37;;;;;;;7.60;1.30;;;18.40;99.90;;;;;;6199479;23;20012;-76
2022/05/28 10:28:03;;;;;;;6.90;1.77;;;18.70;99.90;;;;;;6177114;23;20004;-76
2022/05/28 10:30:43;;;;;;;11.10;1.52;;;18.50;99.80;;;;;;6192150;23;20013;-77
2022/05/28 10:33:14;;;;;;;6.72;1.60;;;18.10;94.40;;;;;;6214078;23;20026;-77
2022/05/28 10:35:40;;;;;;;5.78;1.48;;;17.60;98.30;;;;;;6187443;23;20017;-77
2022/05/28 10:38:24;;;;;;;8.18;1.42;;;17.20;99.50;;;;;;6187401;23;20071;-77
2022/05/28 10:40:57;;;;;;;8.07;1.60;;;16.90;97.30;;;;;;6186933;23;20024;-76
2022/05/28 10:43:25;;;;;;;10.65;1.40;;;16.70;98.70;;;;;;6187469;23;20331;-77
2022/05/28 10:46:20;;;;;;;7.63;1.60;;;16.80;99.10;;;;;;6187402;23;20012;-77
2022/05/28 10:49:04;;;;;;;7.43;1.58;;;16.70;94.90;;;;;;6186469;23;20016;-76
2022/05/28 10:51:43;;;;;;;5.35;1.85;;;16.60;95.90;;;;;;6186904;23;20044;-77
2022/05/28 10:54:24;;;;;;;5.32;1.33;;;16.80;97.60;;;;;;6187159;23;20374;-77
2022/05/28 10:57:24;;;;;;;6.30;1.23;;;17.10;97.60;;;;;;6187288;23;20025;-77
2022/05/28 11:00:08;;;;;;;6.75;1.42;;;17.10;95.40;;;;;;6186822;23;20019;-77
2022/05/28 11:02:51;;;;;;;13.02;1.55;;;17.00;95.00;;;;;;6213572;22;20019;-76
2022/05/28 11:06:04;;;;;;;10.77;1.38;;;16.70;94.80;;;;;;6242507;23;20050;-77
2022/05/28 11:08:47;;;;;;;13.00;1.52;;;16.40;95.70;;;;;;6217543;23;20024;-77
2022/05/28 11:11:33;;;;;;;8.60;1.40;;;16.30;97.80;;;;;;6242506;23;20020;-76
2022/05/28 11:14:23;;;;;;;6.93;1.40;;;16.40;98.50;;;;;;6242583;23;20020;-77
2022/05/28 11:17:01;;;;;;;6.70;1.27;;;16.50;97.40;;;;;;6242459;23;20019;-76
2022/05/28 11:19:56;;;;;;;6.63;1.35;;;16.30;98.00;;;;;;6242278;23;20030;-77
2022/05/28 11:22:59;;;;;;;7.28;1.58;;;16.00;96.10;;;;;;6241988;22;20457;-77
2022/05/28 11:26:10;;;;;;;5.82;1.55;;;15.80;96.90;;;;;;6215752;23;20444;-76
2022/05/28 11:28:51;;;;;;;8.82;1.83;;;15.70;97.60;;;;;;6217193;23;20341;-77
2022/05/28 11:31:41;;;;;;;7.20;1.80;;;15.80;98.10;;;;;;6241940;23;20027;-77
2022/05/28 11:34:13;;;;;;;8.35;2.00;;;16.10;98.70;;;;;;6217137;23;20016;-77
2022/05/28 11:36:51;;;;;;;13.20;1.75;;;16.20;99.00;;;;;;6242627;23;20138;-78
2022/05/28 11:39:38;;;;;;;6.47;1.80;;;16.30;98.30;;;;;;6217226;23;20430;-75
2022/05/28 11:42:39;;;;;;;7.43;1.80;;;16.40;97.80;;;;;;6242100;22;20023;-77
2022/05/28 11:45:10;;;;;;;10.80;1.95;;;16.10;98.50;;;;;;6242240;23;20048;-77
2022/05/28 11:47:52;;;;;;;8.77;1.80;;;16.00;99.70;;;;;;6242052;23;20456;-77
2022/05/28 11:53:42;;;;;;;11.52;1.95;;;15.40;99.90;;;;;;6241873;22;20105;-77
2022/05/28 11:56:20;;;;;;;9.80;1.52;;;15.10;99.90;;;;;;6216693;23;20142;-77
2022/05/28 11:58:49;;;;;;;10.02;1.80;;;14.90;99.90;;;;;;6242276;23;20008;-77
2022/05/28 12:01:28;;;;;;;11.32;1.70;;;15.00;99.90;;;;;;6241800;23;20600;-77
2022/05/28 12:03:54;;;;;;;12.77;1.50;;;15.10;99.90;;;;;;6243848;22;20023;-76
2022/05/28 12:06:56;;;;;;;9.10;2.03;;;15.30;99.90;;;;;;6216456;23;20012;-77
2022/05/28 12:09:26;;;;;;;9.52;1.45;;;15.60;99.90;;;;;;6231137;23;20020;-76
2022/05/28 12:12:20;;;;;;;11.02;2.13;;;15.70;99.90;;;;;;6243627;22;20008;-78
2022/05/28 12:15:00;;;;;;;5.20;1.73;;;15.90;99.90;;;;;;6216750;23;20465;-77
2022/05/28 12:17:28;;;;;;;9.93;2.05;;;16.10;99.90;;;;;;6241644;23;20016;-77
2022/05/28 12:20:10;;;;;;;8.40;1.45;;;16.60;99.90;;;;;;6240575;23;20008;-77
2022/05/28 12:22:53;;;;;;;7.10;1.20;;;17.00;99.30;;;;;;6216330;23;20019;-77
2022/05/28 12:25:39;;;;;;;9.52;2.10;;;17.10;98.50;;;;;;6216671;23;20015;-77
2022/05/28 12:28:12;;;;;;;8.73;1.77;;;16.90;96.60;;;;;;6241200;23;20019;-77
2022/05/28 12:30:39;;;;;;;12.10;1.85;;;16.60;98.70;;;;;;6241277;23;20012;-77
2022/05/28 12:33:17;;;;;;;11.25;1.77;;;16.20;99.80;;;;;;6241429;22;20433;-77
2022/05/28 12:36:16;;;;;;;7.43;1.73;;;15.90;99.90;;;;;;6216332;23;20019;-77
2022/05/28 12:39:12;;;;;;;15.13;1.83;;;15.60;99.90;;;;;;6239740;23;20349;-76
2022/05/28 12:41:39;;;;;;;10.00;2.88;;;15.50;99.90;;;;;;6240868;22;20065;-77
2022/05/28 12:44:20;;;;;;;10.70;2.65;;;15.70;99.90;;;;;;6242009;23;20065;-76
2022/05/28 12:46:49;;;;;;;6.03;1.30;;;15.80;99.90;;;;;;6241206;23;20099;-77
2022/05/28 12:49:23;;;;;;;5.88;1.35;;;15.80;99.90;;;;;;6241751;23;20465;-78
2022/05/28 12:52:02;;;;;;;7.75;1.45;;;15.80;98.60;;;;;;6242774;22;20559;-76
2022/05/28 12:54:31;;;;;;;12.02;2.20;;;16.00;99.70;;;;;;6241848;23;20016;-76
2022/05/28 12:57:10;;;;;;;13.23;1.73;;;16.40;99.90;;;;;;6241478;23;20016;-76
2022/05/28 12:59:39;;;;;;;7.22;1.23;;;16.90;99.90;;;;;;6241294;23;20357;-77
2022/05/28 13:02:26;;;;;;;7.15;2.25;;;17.30;97.80;;;;;;6241383;22;20046;-76
2022/05/28 13:05:09;;;;;;;9.00;1.95;;;17.60;94.30;;;;;;6241557;23;20027;-75
2022/05/28 13:07:43;;;;;;;8.63;1.40;;;17.80;96.50;;;;;;6241866;23;20043;-76
2022/05/28 13:10:21;;;;;;;8.77;1.33;;;17.90;95.90;;;;;;6241252;23;20365;-76
2022/05/28 13:13:06;;;;;;;9.60;1.25;;;17.50;91.90;;;;;;6241229;22;20091;-76
2022/05/28 13:16:04;;;;;;;9.43;1.73;;;17.10;92.90;;;;;;6241390;23;20012;-76
2022/05/28 13:18:42;;;;;;;5.70;1.30;;;17.00;93.90;;;;;;6241532;23;20469;-77